Time;durP1;ratioP1;P1;durP2;ratioP2;P2;SDS_P1;SDS_P2;PMS_P1;PMS_P2;Temp;Humidity;BMP_temperature;BMP_pressure;BME280_temperature;BME280_humidity;BME280_pressure;Samples;Min_cycle;Max_cycle;Signal;HPM_P1;HPM_P2
2020/12/08 00:00:43;;;;;;;40.47;16.38;;;2.80;99.90;;;;;;5058644;28;20031;-95
2020/12/08 00:03:09;;;;;;;34.03;15.57;;;2.80;99.90;;;;;;5076301;28;20108;-95
2020/12/08 00:05:34;;;;;;;40.28;17.27;;;2.80;99.90;;;;;;5058537;28;20060;-95
2020/12/08 00:08:03;;;;;;;32.80;16.85;;;2.80;99.90;;;;;;5058404;28;20020;-94
2020/12/08 00:10:29;;;;;;;46.23;21.73;;;2.90;99.90;;;;;;5058592;28;20020;-94
2020/12/08 00:12:55;;;;;;;34.83;17.75;;;2.90;99.90;;;;;;5058568;28;20031;-95
2020/12/08 00:15:20;;;;;;;35.35;16.00;;;3.00;99.90;;;;;;5076378;28;20031;-95
2020/12/08 00:17:47;;;;;;;35.85;17.52;;;3.00;99.90;;;;;;5058709;28;20029;-94
2020/12/08 00:20:14;;;;;;;45.25;22.17;;;3.10;99.90;;;;;;5058261;28;20170;-94
2020/12/08 00:22:39;;;;;;;41.28;21.27;;;3.10;99.90;;;;;;5076006;28;20063;-95
2020/12/08 00:25:07;;;;;;;41.80;21.42;;;3.10;99.90;;;;;;5058178;28;20492;-94
2020/12/08 00:27:32;;;;;;;33.50;17.42;;;3.20;99.90;;;;;;5076005;28;20029;-94
2020/12/08 00:29:58;;;;;;;42.15;20.75;;;3.20;99.90;;;;;;5058322;28;20075;-94
2020/12/08 00:32:23;;;;;;;37.95;20.42;;;3.20;99.90;;;;;;5058106;28;20047;-94
2020/12/08 00:34:49;;;;;;;41.17;20.20;;;3.20;99.90;;;;;;5058330;28;20017;-93
2020/12/08 00:37:14;;;;;;;33.03;17.75;;;3.20;99.90;;;;;;5058036;28;20046;-95
2020/12/08 00:39:40;;;;;;;29.95;15.57;;;3.20;99.90;;;;;;5058006;28;20112;-94
2020/12/08 00:42:06;;;;;;;24.73;13.57;;;3.30;99.90;;;;;;5075845;28;20025;-94
2020/12/08 00:44:35;;;;;;;26.58;14.10;;;3.30;99.90;;;;;;5075452;28;20084;-94
2020/12/08 00:47:02;;;;;;;24.05;12.65;;;3.30;99.90;;;;;;5058036;28;20027;-94
2020/12/08 00:49:28;;;;;;;30.23;15.27;;;3.40;99.90;;;;;;5060164;28;20024;-94
2020/12/08 00:51:58;;;;;;;35.67;17.77;;;3.40;99.90;;;;;;5057689;28;20028;-94
2020/12/08 00:54:24;;;;;;;;;;;3.40;99.90;;;;;;5057625;28;20021;-94
2020/12/08 00:56:50;;;;;;;29.85;14.23;;;3.30;99.90;;;;;;5057411;28;19905;-94
2020/12/08 00:59:16;;;;;;;25.67;13.18;;;3.30;99.90;;;;;;5057339;28;20028;-94
2020/12/08 01:01:42;;;;;;;26.48;13.70;;;3.40;99.90;;;;;;5057423;28;20031;-94
2020/12/08 01:04:11;;;;;;;27.27;14.02;;;3.40;99.90;;;;;;5057262;28;20027;-95
2020/12/08 01:06:41;;;;;;;25.90;13.37;;;3.40;99.90;;;;;;5057387;28;20024;-94
2020/12/08 01:09:07;;;;;;;32.47;16.80;;;3.50;99.90;;;;;;5058202;28;20079;-95
2020/12/08 01:11:41;;;;;;;30.52;14.80;;;3.50;99.90;;;;;;5057141;28;20029;-94
2020/12/08 01:14:11;;;;;;;30.10;14.93;;;3.50;99.90;;;;;;5059089;28;20051;-95
2020/12/08 01:16:38;;;;;;;27.10;16.08;;;3.50;99.90;;;;;;5060100;28;20032;-94
2020/12/08 01:19:04;;;;;;;23.13;13.60;;;3.50;99.90;;;;;;5076683;28;20101;-93
2020/12/08 01:21:30;;;;;;;32.92;16.40;;;3.50;99.90;;;;;;5077278;28;20084;-92
2020/12/08 01:23:55;;;;;;;28.55;15.18;;;3.50;99.90;;;;;;5077168;28;20008;-92
2020/12/08 01:26:23;;;;;;;33.70;17.48;;;3.50;99.90;;;;;;5060401;28;20115;-94
2020/12/08 01:28:48;;;;;;;31.13;17.13;;;3.60;99.90;;;;;;5056796;28;20496;-94
2020/12/08 01:31:14;;;;;;;32.60;17.23;;;3.60;99.90;;;;;;5049990;28;20124;-94
2020/12/08 01:33:39;;;;;;;27.15;15.13;;;3.50;99.90;;;;;;5033823;28;20025;-94
2020/12/08 01:36:05;;;;;;;29.73;15.35;;;3.50;99.90;;;;;;5033398;28;20119;-94
2020/12/08 01:38:30;;;;;;;27.45;14.55;;;3.50;99.90;;;;;;5034261;28;20389;-94
2020/12/08 01:40:56;;;;;;;27.83;15.32;;;3.50;99.90;;;;;;5033621;28;20029;-94
2020/12/08 01:43:22;;;;;;;27.08;13.70;;;3.50;99.90;;;;;;5049950;28;20021;-95
2020/12/08 01:45:48;;;;;;;28.85;14.38;;;3.50;99.90;;;;;;5033267;28;20381;-94
2020/12/08 01:48:15;;;;;;;43.92;19.23;;;3.50;99.90;;;;;;5033182;28;20033;-94
2020/12/08 01:50:41;;;;;;;27.48;15.40;;;3.50;99.90;;;;;;5033172;28;20025;-94
2020/12/08 01:53:10;;;;;;;28.98;15.13;;;3.40;99.90;;;;;;5033023;28;20025;-94
2020/12/08 01:55:38;;;;;;;23.48;12.80;;;3.40;99.90;;;;;;5032699;28;20111;-94
2020/12/08 01:58:20;;;;;;;24.00;11.20;;;3.30;99.90;;;;;;5034301;28;20032;-94
2020/12/08 02:00:55;;;;;;;27.63;11.25;;;3.30;99.90;;;;;;5033043;28;20036;-94
2020/12/08 02:03:21;;;;;;;25.67;11.15;;;3.30;99.90;;;;;;5033100;28;20029;-94
2020/12/08 02:05:46;;;;;;;28.02;13.27;;;3.20;99.90;;;;;;5033161;28;20037;-94
2020/12/08 02:08:12;;;;;;;25.13;11.27;;;3.20;99.90;;;;;;5049219;28;20559;-94
2020/12/08 02:10:38;;;;;;;31.17;13.43;;;3.20;99.90;;;;;;5034122;28;20028;-94
2020/12/08 02:13:10;;;;;;;21.75;11.30;;;3.10;99.90;;;;;;5033215;28;20034;-95
2020/12/08 02:15:37;;;;;;;27.52;12.20;;;3.10;99.90;;;;;;5034312;28;20083;-94
2020/12/08 02:18:03;;;;;;;45.78;19.88;;;3.00;99.90;;;;;;5032906;28;20397;-94
2020/12/08 02:20:28;;;;;;;43.92;19.70;;;3.00;99.90;;;;;;5034145;28;20025;-94
2020/12/08 02:22:57;;;;;;;36.10;17.55;;;3.00;99.90;;;;;;5034123;28;20026;-94
2020/12/08 02:25:24;;;;;;;33.28;17.00;;;3.00;99.90;;;;;;5032999;28;20026;-94
2020/12/08 02:27:50;;;;;;;40.75;17.65;;;2.90;99.90;;;;;;5049559;28;20033;-94
2020/12/08 02:30:15;;;;;;;38.88;18.65;;;2.90;99.90;;;;;;5050559;28;20017;-94
2020/12/08 02:32:41;;;;;;;41.50;19.73;;;2.90;99.90;;;;;;5057299;28;20111;-94
2020/12/08 02:35:07;;;;;;;32.53;16.02;;;2.90;99.90;;;;;;5056097;28;20119;-94
2020/12/08 02:37:35;;;;;;;37.38;16.17;;;2.90;99.90;;;;;;5056226;28;20063;-94
2020/12/08 02:40:01;;;;;;;34.35;16.38;;;2.80;99.90;;;;;;5073904;28;20036;-94
2020/12/08 02:42:26;;;;;;;30.85;14.35;;;2.80;99.90;;;;;;5056058;28;20020;-95
2020/12/08 02:44:51;;;;;;;31.42;14.40;;;2.80;99.90;;;;;;5056121;28;20029;-94
2020/12/08 02:47:17;;;;;;;32.90;15.95;;;2.80;99.90;;;;;;5055902;28;20017;-95
2020/12/08 02:49:42;;;;;;;33.90;14.90;;;2.80;99.90;;;;;;5055774;28;20040;-94
2020/12/08 02:52:08;;;;;;;32.97;14.50;;;2.80;99.90;;;;;;5073669;28;20104;-95
2020/12/08 02:54:34;;;;;;;36.53;17.98;;;2.80;99.90;;;;;;5056175;28;20024;-95
2020/12/08 02:57:05;;;;;;;41.17;18.42;;;2.70;99.90;;;;;;5055761;28;20476;-95
2020/12/08 02:59:32;;;;;;;37.55;16.98;;;2.70;99.90;;;;;;5055905;28;20025;-95
2020/12/08 03:01:58;;;;;;;39.55;20.35;;;2.70;99.90;;;;;;5055807;28;20024;-94
2020/12/08 03:04:23;;;;;;;46.47;18.80;;;2.70;99.90;;;;;;5055647;28;20024;-95
2020/12/08 03:06:49;;;;;;;35.58;16.25;;;2.70;99.90;;;;;;5056243;28;20070;-95
2020/12/08 03:09:14;;;;;;;35.33;15.73;;;2.60;99.90;;;;;;5077290;28;20108;-95
2020/12/08 03:11:40;;;;;;;32.40;13.82;;;2.50;99.90;;;;;;5059442;28;20020;-94
2020/12/08 03:14:07;;;;;;;37.17;16.40;;;2.40;99.90;;;;;;5077074;28;20064;-94
2020/12/08 03:16:33;;;;;;;36.75;16.42;;;2.50;99.90;;;;;;5077076;28;20021;-94
2020/12/08 03:18:59;;;;;;;36.38;15.45;;;2.40;99.90;;;;;;5059323;28;20074;-94
2020/12/08 03:21:24;;;;;;;37.28;16.10;;;2.40;99.90;;;;;;5059176;28;20043;-94
2020/12/08 03:23:50;;;;;;;39.83;16.65;;;2.40;99.90;;;;;;5059106;28;20073;-95
2020/12/08 03:26:20;;;;;;;34.83;14.93;;;2.40;99.90;;;;;;5059258;28;20029;-95
2020/12/08 03:28:45;;;;;;;32.97;13.55;;;2.40;99.90;;;;;;5059280;28;20122;-95
2020/12/08 03:31:11;;;;;;;36.15;15.10;;;2.40;99.90;;;;;;5058779;28;20471;-95
2020/12/08 03:33:36;;;;;;;43.17;19.92;;;2.40;99.90;;;;;;5059050;28;20130;-94
2020/12/08 03:36:02;;;;;;;41.60;18.00;;;2.40;99.90;;;;;;5059077;28;20027;-94
2020/12/08 03:38:27;;;;;;;37.80;15.55;;;2.40;99.90;;;;;;5066358;28;20066;-95
2020/12/08 03:40:53;;;;;;;35.67;15.43;;;2.40;99.90;;;;;;5066864;28;20047;-95
2020/12/08 03:43:18;;;;;;;34.42;15.48;;;2.40;99.90;;;;;;5085217;28;20024;-94
2020/12/08 03:45:44;;;;;;;44.70;18.88;;;2.40;99.90;;;;;;5068679;28;20115;-94
2020/12/08 03:48:09;;;;;;;36.03;17.23;;;2.40;99.90;;;;;;5067300;28;20060;-95
2020/12/08 03:50:35;;;;;;;40.60;16.88;;;2.30;99.90;;;;;;5058923;28;20017;-94
2020/12/08 03:53:00;;;;;;;45.00;17.40;;;2.40;99.90;;;;;;5058969;28;20070;-95
2020/12/08 03:55:26;;;;;;;38.60;15.52;;;2.30;99.90;;;;;;5058664;28;20027;-94
2020/12/08 03:57:51;;;;;;;32.92;15.63;;;2.30;99.90;;;;;;5059109;28;20028;-94
2020/12/08 04:00:17;;;;;;;35.78;14.88;;;2.30;99.90;;;;;;5058891;28;20064;-95
2020/12/08 04:02:42;;;;;;;33.05;14.80;;;2.30;99.90;;;;;;5058610;28;20074;-96
2020/12/08 04:05:08;;;;;;;33.83;14.73;;;2.20;99.90;;;;;;5058620;28;20024;-95
2020/12/08 04:07:33;;;;;;;34.03;15.43;;;2.20;99.90;;;;;;5058263;28;20024;-95
2020/12/08 04:09:59;;;;;;;31.33;14.55;;;2.10;99.90;;;;;;5058350;28;20561;-95
2020/12/08 04:12:24;;;;;;;28.55;12.80;;;2.10;99.90;;;;;;5058230;28;20020;-94
2020/12/08 04:14:50;;;;;;;43.25;19.95;;;2.10;99.90;;;;;;5076106;28;20392;-95
2020/12/08 04:17:19;;;;;;;42.72;18.83;;;2.00;99.90;;;;;;5058398;28;20028;-95
2020/12/08 04:19:45;;;;;;;47.30;20.37;;;2.00;99.90;;;;;;5075624;28;20027;-94
2020/12/08 04:22:11;;;;;;;42.63;17.90;;;1.90;99.90;;;;;;5058283;28;20388;-95
2020/12/08 04:24:37;;;;;;;35.22;15.68;;;1.90;99.90;;;;;;5058093;28;20142;-95
2020/12/08 04:27:02;;;;;;;40.50;16.00;;;2.00;99.90;;;;;;5058135;28;20047;-95
2020/12/08 04:29:28;;;;;;;37.50;14.50;;;2.00;99.90;;;;;;5075613;28;20028;-94
2020/12/08 04:31:54;;;;;;;32.35;13.43;;;2.00;99.90;;;;;;5058008;28;20078;-95
2020/12/08 04:34:19;;;;;;;37.50;14.23;;;2.00;99.90;;;;;;5058122;28;20108;-95
2020/12/08 04:36:45;;;;;;;30.05;13.18;;;2.10;99.90;;;;;;5057883;28;20387;-95
2020/12/08 04:39:11;;;;;;;41.38;15.75;;;2.10;99.90;;;;;;5057852;28;20017;-95
2020/12/08 04:41:36;;;;;;;39.95;15.38;;;2.10;99.90;;;;;;5057671;28;20032;-95
2020/12/08 04:44:05;;;;;;;45.72;15.77;;;2.10;99.90;;;;;;5057704;28;20134;-95
2020/12/08 04:46:31;;;;;;;35.28;15.68;;;2.20;99.90;;;;;;5057884;28;20029;-95
2020/12/08 04:48:57;;;;;;;36.28;14.45;;;2.20;99.90;;;;;;5057677;28;20039;-95
2020/12/08 04:51:22;;;;;;;50.13;18.70;;;2.20;99.90;;;;;;5075302;28;20530;-95
2020/12/08 04:53:52;;;;;;;50.20;19.63;;;2.20;99.90;;;;;;5057515;28;20123;-95
2020/12/08 04:56:17;;;;;;;42.17;18.33;;;2.20;99.90;;;;;;5075053;28;20031;-95
2020/12/08 04:58:43;;;;;;;44.83;17.75;;;2.30;99.90;;;;;;5057515;28;20029;-94
2020/12/08 05:01:23;;;;;;;33.97;15.13;;;2.30;99.90;;;;;;5057140;28;20020;-95
2020/12/08 05:03:55;;;;;;;36.87;14.70;;;2.30;99.90;;;;;;5075461;28;20020;-94
2020/12/08 05:06:21;;;;;;;39.10;16.83;;;2.30;99.90;;;;;;5057371;28;20024;-94
2020/12/08 05:08:59;;;;;;;37.40;16.63;;;2.30;99.90;;;;;;5074867;28;20068;-94
2020/12/08 05:11:28;;;;;;;43.40;17.50;;;2.30;99.90;;;;;;5057123;28;20107;-94
2020/12/08 05:14:05;;;;;;;37.97;17.63;;;2.30;99.90;;;;;;5057094;28;20031;-95
2020/12/08 05:16:31;;;;;;;41.55;19.25;;;2.30;99.90;;;;;;5074912;28;20020;-95
2020/12/08 05:19:10;;;;;;;37.15;17.00;;;2.20;99.90;;;;;;5074805;28;20028;-94
2020/12/08 05:21:52;;;;;;;35.35;16.30;;;2.30;99.90;;;;;;5057159;28;20024;-95
2020/12/08 05:24:22;;;;;;;37.80;16.13;;;2.30;99.90;;;;;;5057526;28;20032;-94
2020/12/08 05:27:02;;;;;;;34.03;14.85;;;2.30;99.90;;;;;;5074684;28;20541;-94
2020/12/08 05:29:28;;;;;;;38.70;15.93;;;2.30;99.90;;;;;;5056361;28;20514;-94
2020/12/08 05:31:55;;;;;;;37.22;15.57;;;2.30;99.90;;;;;;5056599;28;20044;-94
2020/12/08 05:34:22;;;;;;;41.85;17.63;;;2.20;99.90;;;;;;5056837;28;20028;-95
2020/12/08 05:36:51;;;;;;;37.13;16.40;;;2.30;99.90;;;;;;5056766;28;20020;-94
2020/12/08 05:39:18;;;;;;;36.15;16.02;;;2.30;99.90;;;;;;5074697;28;20020;-95
2020/12/08 05:41:46;;;;;;;29.88;13.55;;;2.30;99.90;;;;;;5056699;28;20021;-94
2020/12/08 05:44:16;;;;;;;33.28;14.18;;;2.30;99.90;;;;;;5074441;28;20028;-94
2020/12/08 05:46:43;;;;;;;32.42;14.38;;;2.30;99.90;;;;;;5056630;28;20070;-95
2020/12/08 05:49:26;;;;;;;33.38;15.32;;;2.20;99.90;;;;;;5131871;27;20481;-86
2020/12/08 05:51:52;;;;;;;35.05;14.85;;;2.20;99.90;;;;;;5093278;28;20028;-86
2020/12/08 05:54:20;;;;;;;32.03;14.75;;;2.20;99.90;;;;;;5093145;28;20437;-86
2020/12/08 05:56:51;;;;;;;36.13;15.10;;;2.20;99.90;;;;;;5092966;28;20020;-87
2020/12/08 05:59:28;;;;;;;45.85;20.23;;;2.20;99.90;;;;;;5111197;28;20094;-86
2020/12/08 06:01:54;;;;;;;34.58;17.75;;;2.20;99.90;;;;;;5078304;28;20030;-86
2020/12/08 06:04:19;;;;;;;41.45;20.95;;;2.20;99.90;;;;;;5090638;28;20100;-85
2020/12/08 06:06:53;;;;;;;35.05;19.40;;;2.20;99.90;;;;;;5072345;28;20548;-86
2020/12/08 06:09:36;;;;;;;38.05;19.05;;;2.20;99.90;;;;;;5072288;28;20066;-86
2020/12/08 06:12:14;;;;;;;42.80;20.30;;;2.30;99.90;;;;;;5072359;28;20028;-86
2020/12/08 06:14:39;;;;;;;42.95;22.48;;;2.20;99.90;;;;;;5072345;28;20020;-86
2020/12/08 06:17:08;;;;;;;41.08;20.23;;;2.20;99.90;;;;;;5072455;28;20024;-86
2020/12/08 06:19:34;;;;;;;39.70;19.25;;;2.20;99.90;;;;;;5072416;28;20085;-86
2020/12/08 06:22:09;;;;;;;30.63;16.90;;;2.20;99.90;;;;;;5072233;28;20020;-86
2020/12/08 06:24:35;;;;;;;32.38;16.10;;;2.30;99.90;;;;;;5072045;28;20115;-86
2020/12/08 06:27:00;;;;;;;29.52;15.80;;;2.30;99.90;;;;;;5089918;28;20105;-86
2020/12/08 06:29:26;;;;;;;32.67;16.23;;;2.30;99.90;;;;;;5071750;28;20021;-86
2020/12/08 06:31:52;;;;;;;28.17;15.57;;;2.40;99.90;;;;;;5071702;28;20020;-86
2020/12/08 06:34:25;;;;;;;32.65;17.30;;;2.40;99.90;;;;;;5071493;28;20031;-86
2020/12/08 06:36:50;;;;;;;29.27;14.73;;;2.40;99.90;;;;;;5071831;28;20066;-86
2020/12/08 06:39:16;;;;;;;38.08;17.73;;;2.50;99.90;;;;;;5071958;28;20024;-86
2020/12/08 06:41:43;;;;;;;37.80;19.00;;;2.40;99.90;;;;;;5089938;28;20028;-86
2020/12/08 06:44:22;;;;;;;31.67;17.05;;;2.50;99.90;;;;;;5089593;28;20028;-86
2020/12/08 06:46:59;;;;;;;28.40;15.52;;;2.50;99.90;;;;;;5077502;28;20024;-86
2020/12/08 06:49:25;;;;;;;30.48;17.15;;;2.50;99.90;;;;;;5077248;28;20079;-86
2020/12/08 06:51:56;;;;;;;40.95;20.85;;;2.60;99.90;;;;;;5077680;28;20017;-86
2020/12/08 06:54:22;;;;;;;38.15;19.75;;;2.60;99.90;;;;;;5067981;28;20518;-87
2020/12/08 06:56:47;;;;;;;32.70;18.02;;;2.60;99.90;;;;;;5079050;28;20414;-86
2020/12/08 06:59:28;;;;;;;30.13;16.08;;;2.60;99.90;;;;;;5061516;28;20070;-86
2020/12/08 07:01:58;;;;;;;29.75;15.70;;;2.70;99.90;;;;;;5050948;28;20056;-85
2020/12/08 07:04:28;;;;;;;33.47;15.40;;;2.70;99.90;;;;;;5053310;28;20029;-86
2020/12/08 07:06:57;;;;;;;26.92;14.18;;;2.70;99.90;;;;;;5057080;28;20193;-86
2020/12/08 07:09:23;;;;;;;24.52;13.52;;;2.70;99.90;;;;;;5059399;28;20119;-86
2020/12/08 07:11:59;;;;;;;26.35;14.00;;;2.70;99.90;;;;;;5055731;28;20112;-86
2020/12/08 07:14:29;;;;;;;27.17;12.13;;;2.80;99.90;;;;;;5066080;28;20028;-87
2020/12/08 07:16:55;;;;;;;24.10;12.60;;;2.80;99.90;;;;;;5054108;28;20111;-85
2020/12/08 07:19:20;;;;;;;31.05;12.20;;;2.80;99.90;;;;;;5054976;28;20071;-87
2020/12/08 07:21:57;;;;;;;22.73;12.00;;;2.80;99.90;;;;;;5055764;28;20024;-87
2020/12/08 07:24:25;;;;;;;26.65;13.15;;;2.80;99.90;;;;;;5064518;28;20499;-86
2020/12/08 07:26:57;;;;;;;27.13;13.20;;;2.80;99.90;;;;;;5064302;28;20476;-85
2020/12/08 07:29:24;;;;;;;28.17;13.88;;;2.90;99.90;;;;;;5052921;28;20021;-85
2020/12/08 07:31:50;;;;;;;26.25;12.98;;;2.90;99.90;;;;;;5061781;28;20013;-86
2020/12/08 07:34:15;;;;;;;24.17;12.75;;;2.90;99.90;;;;;;5054280;28;20400;-86
2020/12/08 07:36:41;;;;;;;25.30;12.93;;;2.90;99.90;;;;;;5060698;28;20021;-85
2020/12/08 07:39:17;;;;;;;25.73;12.07;;;2.80;99.90;;;;;;5049257;28;20029;-86
2020/12/08 07:41:42;;;;;;;23.88;13.23;;;2.90;99.90;;;;;;5054011;28;20107;-86
2020/12/08 07:44:13;;;;;;;21.15;11.90;;;2.90;99.90;;;;;;5054896;28;20120;-85
2020/12/08 07:46:47;;;;;;;24.35;12.70;;;2.90;99.90;;;;;;5066423;28;20028;-86
2020/12/08 07:49:12;;;;;;;31.02;15.43;;;2.90;99.90;;;;;;5079901;28;20154;-86
2020/12/08 07:51:38;;;;;;;32.30;15.35;;;2.90;99.90;;;;;;5063094;28;20131;-85
2020/12/08 07:54:05;;;;;;;30.08;17.50;;;2.90;99.90;;;;;;5063103;28;20024;-86
2020/12/08 07:56:36;;;;;;;27.80;16.42;;;2.90;99.90;;;;;;5063501;28;20069;-85
2020/12/08 07:59:03;;;;;;;39.05;22.33;;;2.90;99.90;;;;;;5067045;28;20118;-85
2020/12/08 08:01:28;;;;;;;34.97;19.55;;;2.80;99.90;;;;;;5086280;28;20028;-86
2020/12/08 08:03:54;;;;;;;37.25;20.60;;;2.80;99.90;;;;;;5067677;28;20058;-85
2020/12/08 08:06:22;;;;;;;34.15;19.73;;;2.80;99.90;;;;;;5069740;28;20388;-86
2020/12/08 08:08:48;;;;;;;39.55;22.20;;;2.80;99.90;;;;;;5084026;28;20476;-85
2020/12/08 08:11:15;;;;;;;38.25;21.23;;;2.80;99.90;;;;;;5068665;28;20051;-85
2020/12/08 08:13:40;;;;;;;31.42;19.00;;;2.80;99.90;;;;;;5083834;28;20429;-85
2020/12/08 08:16:10;;;;;;;35.92;20.60;;;2.80;99.90;;;;;;5065031;28;20494;-85
2020/12/08 08:18:36;;;;;;;39.97;20.30;;;2.80;99.90;;;;;;5066872;28;20089;-85
2020/12/08 08:21:02;;;;;;;34.72;19.73;;;2.80;99.90;;;;;;5060939;28;20457;-85
2020/12/08 08:23:29;;;;;;;33.25;19.10;;;2.90;99.90;;;;;;5068948;28;20495;-84
2020/12/08 08:25:54;;;;;;;32.47;18.63;;;2.90;99.90;;;;;;5075311;28;20028;-84
2020/12/08 08:28:20;;;;;;;41.38;21.15;;;2.90;99.90;;;;;;5075710;28;20082;-84
2020/12/08 08:30:46;;;;;;;37.05;20.55;;;2.90;99.90;;;;;;5093826;28;20476;-84
2020/12/08 08:33:11;;;;;;;37.75;19.00;;;2.90;99.90;;;;;;5093884;28;20434;-84
2020/12/08 08:35:37;;;;;;;39.75;21.65;;;3.00;99.90;;;;;;5075672;28;20528;-84
2020/12/08 08:38:03;;;;;;;33.97;18.77;;;3.00;99.90;;;;;;5076018;28;20148;-84
2020/12/08 08:40:29;;;;;;;37.58;21.45;;;3.00;99.90;;;;;;5074730;28;20119;-84
2020/12/08 08:42:55;;;;;;;33.88;20.77;;;3.00;99.90;;;;;;5064985;28;20118;-83
2020/12/08 08:45:21;;;;;;;34.83;21.05;;;3.00;99.90;;;;;;5069466;28;20028;-84
2020/12/08 08:47:47;;;;;;;35.35;22.10;;;3.00;99.90;;;;;;5068124;28;20039;-84
2020/12/08 08:50:13;;;;;;;34.58;20.95;;;3.00;99.90;;;;;;5093786;28;20608;-84
2020/12/08 08:52:38;;;;;;;39.65;22.90;;;3.00;99.90;;;;;;5075438;28;20024;-84
2020/12/08 08:55:04;;;;;;;40.33;23.67;;;3.00;99.90;;;;;;5075182;28;20042;-84
2020/12/08 08:57:29;;;;;;;36.38;21.83;;;3.00;99.90;;;;;;5093515;28;20036;-83
2020/12/08 08:59:55;;;;;;;38.47;22.10;;;3.10;99.90;;;;;;5075275;28;20036;-84
2020/12/08 09:02:21;;;;;;;40.42;23.55;;;3.10;99.90;;;;;;5075278;28;20028;-82
2020/12/08 09:04:46;;;;;;;41.08;23.15;;;3.10;99.90;;;;;;5070319;28;20072;-84
2020/12/08 09:10:44;;;;;;;38.35;22.52;;;3.20;99.90;;;;;;5004265;28;20083;-84
2020/12/08 09:13:37;;;;;;;38.38;23.33;;;3.20;99.90;;;;;;4981897;28;20023;-84
2020/12/08 09:16:23;;;;;;;36.80;21.25;;;3.20;99.90;;;;;;4991098;28;20034;-84
2020/12/08 09:18:49;;;;;;;41.47;23.52;;;3.20;99.90;;;;;;4974351;28;20458;-83
2020/12/08 09:21:15;;;;;;;37.03;22.30;;;3.20;99.90;;;;;;5017294;28;20037;-83
2020/12/08 09:23:41;;;;;;;40.25;23.33;;;3.30;99.90;;;;;;5055332;28;20032;-84
2020/12/08 09:26:06;;;;;;;36.83;23.35;;;3.30;99.90;;;;;;5053116;28;20203;-83
2020/12/08 09:28:32;;;;;;;39.30;23.13;;;3.40;99.90;;;;;;5066368;28;20060;-83
2020/12/08 09:30:57;;;;;;;35.95;21.50;;;3.40;99.90;;;;;;5050893;28;20106;-83
2020/12/08 09:33:22;;;;;;;39.15;24.27;;;3.40;99.90;;;;;;5052902;28;20025;-84
2020/12/08 09:35:48;;;;;;;39.28;24.40;;;3.50;99.90;;;;;;5052696;28;20028;-83
2020/12/08 09:38:17;;;;;;;38.30;22.73;;;3.40;99.90;;;;;;5082256;28;20283;-83
2020/12/08 09:40:43;;;;;;;36.35;23.42;;;3.50;99.90;;;;;;5063893;28;20078;-83
2020/12/08 09:43:09;;;;;;;31.73;20.23;;;3.50;99.90;;;;;;5063898;28;20020;-83
2020/12/08 09:45:37;;;;;;;37.95;22.85;;;3.60;99.90;;;;;;5082019;28;20016;-84
2020/12/08 09:48:11;;;;;;;37.67;22.83;;;3.60;99.90;;;;;;5087686;28;20464;-84
2020/12/08 09:50:37;;;;;;;39.08;24.33;;;3.70;99.90;;;;;;5074477;28;20024;-84
2020/12/08 09:53:02;;;;;;;41.00;24.88;;;3.70;99.90;;;;;;5092780;28;20109;-83
2020/12/08 09:55:28;;;;;;;44.05;27.17;;;3.80;99.90;;;;;;5074030;28;20500;-83
2020/12/08 09:57:54;;;;;;;40.00;23.88;;;3.80;99.90;;;;;;5074943;28;20028;-83
2020/12/08 10:00:19;;;;;;;43.17;25.73;;;3.80;99.90;;;;;;5075326;28;20016;-89
2020/12/08 10:03:08;;;;;;;36.10;21.77;;;3.80;99.90;;;;;;5093888;28;20053;-91
2020/12/08 10:05:39;;;;;;;36.47;22.83;;;3.90;99.90;;;;;;5066515;28;20437;-94
2020/12/08 10:08:07;;;;;;;32.60;20.30;;;3.90;99.90;;;;;;5076361;28;20059;-91
2020/12/08 10:10:33;;;;;;;34.25;20.00;;;3.90;99.90;;;;;;5076261;28;20016;-90
2020/12/08 10:13:00;;;;;;;32.20;19.77;;;3.90;99.90;;;;;;5076261;28;20024;-85
2020/12/08 10:15:26;;;;;;;41.58;23.73;;;3.90;99.90;;;;;;5074958;28;20097;-87
2020/12/08 10:17:52;;;;;;;35.13;22.02;;;4.00;99.90;;;;;;5069447;28;20500;-84
2020/12/08 10:20:17;;;;;;;38.45;23.25;;;4.00;99.90;;;;;;5066585;28;20016;-91
2020/12/08 10:22:43;;;;;;;35.33;23.27;;;4.00;99.90;;;;;;5060894;28;20520;-86
2020/12/08 10:25:08;;;;;;;36.10;23.85;;;4.10;99.90;;;;;;5074456;28;20115;-86
2020/12/08 10:27:34;;;;;;;34.92;22.15;;;4.10;99.90;;;;;;5074637;28;20032;-85
2020/12/08 10:29:59;;;;;;;34.75;22.27;;;4.20;99.90;;;;;;5074397;28;20070;-86
2020/12/08 10:32:25;;;;;;;37.05;24.15;;;4.30;99.90;;;;;;5074762;28;20110;-86
2020/12/08 10:34:50;;;;;;;34.38;22.58;;;4.40;99.90;;;;;;5088066;28;20035;-86
2020/12/08 10:37:18;;;;;;;37.05;22.38;;;4.50;99.90;;;;;;5078667;28;20069;-87
2020/12/08 10:39:44;;;;;;;40.92;26.45;;;4.60;99.90;;;;;;5078569;28;20044;-86
2020/12/08 10:42:09;;;;;;;40.33;25.92;;;4.60;99.90;;;;;;5078594;28;20058;-86
2020/12/08 10:44:35;;;;;;;39.35;24.85;;;4.60;99.90;;;;;;5078509;28;20489;-86
2020/12/08 10:47:00;;;;;;;39.63;24.90;;;4.60;99.90;;;;;;5066506;28;20042;-87
2020/12/08 10:49:26;;;;;;;36.80;23.73;;;4.70;99.90;;;;;;5058421;28;20047;-87
2020/12/08 10:51:52;;;;;;;35.47;22.50;;;4.70;99.90;;;;;;5058376;28;20510;-86
2020/12/08 10:54:18;;;;;;;40.72;26.23;;;4.60;99.90;;;;;;5076521;28;20020;-86
2020/12/08 10:56:43;;;;;;;34.13;22.13;;;4.60;99.90;;;;;;5096754;28;20055;-86
2020/12/08 10:59:09;;;;;;;37.95;24.30;;;4.70;99.90;;;;;;5093545;28;20039;-86
2020/12/08 11:01:34;;;;;;;40.35;26.35;;;4.70;99.90;;;;;;5078936;28;20042;-86
2020/12/08 11:04:00;;;;;;;42.25;26.65;;;4.80;99.90;;;;;;5079842;28;20391;-87
2020/12/08 11:06:27;;;;;;;38.70;24.10;;;4.80;99.90;;;;;;5096149;28;20066;-86
2020/12/08 11:08:54;;;;;;;37.67;24.02;;;4.80;99.90;;;;;;5077948;28;20024;-87
2020/12/08 11:11:25;;;;;;;42.22;26.23;;;4.90;99.90;;;;;;5096081;28;20032;-87
2020/12/08 11:13:51;;;;;;;39.50;24.85;;;4.90;99.90;;;;;;5078165;28;20049;-86
2020/12/08 11:16:17;;;;;;;39.20;24.35;;;4.90;99.90;;;;;;5077849;28;20024;-86
2020/12/08 11:18:43;;;;;;;38.03;24.25;;;5.00;99.90;;;;;;5095820;28;20131;-86
2020/12/08 11:21:09;;;;;;;37.60;25.80;;;5.00;99.90;;;;;;5095767;28;20099;-87
2020/12/08 11:23:34;;;;;;;41.40;26.85;;;5.00;99.90;;;;;;5077493;28;20123;-86
2020/12/08 11:26:00;;;;;;;44.15;26.88;;;5.10;99.90;;;;;;5077950;28;20023;-86
2020/12/08 11:28:25;;;;;;;40.63;25.85;;;5.10;99.90;;;;;;5077721;28;20024;-86
2020/12/08 11:30:51;;;;;;;45.08;29.75;;;5.20;99.90;;;;;;5077499;28;20031;-87
2020/12/08 11:33:17;;;;;;;38.00;26.38;;;5.20;99.90;;;;;;5078196;28;20024;-86
2020/12/08 11:35:43;;;;;;;34.08;24.00;;;5.20;99.90;;;;;;5057695;28;20115;-87
2020/12/08 11:38:09;;;;;;;39.05;25.48;;;5.30;99.90;;;;;;5057753;28;20467;-86
2020/12/08 11:40:34;;;;;;;35.70;23.80;;;5.30;99.90;;;;;;5075218;28;20036;-87
2020/12/08 11:43:00;;;;;;;35.60;22.88;;;5.30;99.90;;;;;;5060094;28;20484;-87
2020/12/08 11:45:25;;;;;;;35.90;24.27;;;5.40;99.90;;;;;;5057602;28;20036;-87
2020/12/08 11:47:51;;;;;;;38.65;25.05;;;5.40;99.90;;;;;;5056995;28;20076;-87
2020/12/08 11:50:16;;;;;;;38.70;24.27;;;5.50;99.90;;;;;;5090800;28;20111;-87
2020/12/08 11:52:42;;;;;;;36.13;23.48;;;5.60;99.90;;;;;;5062348;28;20091;-87
2020/12/08 11:55:07;;;;;;;41.25;26.65;;;5.70;99.90;;;;;;5077260;28;20516;-87
2020/12/08 11:57:34;;;;;;;41.67;27.73;;;5.80;99.90;;;;;;5077134;28;20028;-87
2020/12/08 11:59:59;;;;;;;39.08;27.08;;;6.00;99.90;;;;;;5077232;28;20364;-86
2020/12/08 12:02:25;;;;;;;45.13;28.73;;;6.10;99.90;;;;;;5089047;28;20506;-86
2020/12/08 12:04:50;;;;;;;37.20;27.20;;;6.20;99.90;;;;;;5068870;28;20025;-87
2020/12/08 12:07:16;;;;;;;40.72;29.02;;;6.40;99.90;;;;;;5069122;28;20039;-87
2020/12/08 12:09:41;;;;;;;46.63;30.35;;;6.50;99.90;;;;;;5067941;28;20016;-87
2020/12/08 12:12:07;;;;;;;39.65;27.70;;;6.60;99.90;;;;;;5067216;28;20020;-87
2020/12/08 12:14:33;;;;;;;37.17;26.27;;;6.70;99.90;;;;;;5065811;28;20009;-87
2020/12/08 12:16:58;;;;;;;34.08;25.67;;;6.70;99.90;;;;;;5065672;28;20024;-87
2020/12/08 12:19:23;;;;;;;36.83;25.20;;;6.70;99.90;;;;;;5066965;28;20059;-87
2020/12/08 12:21:49;;;;;;;35.35;24.20;;;6.60;99.90;;;;;;5064328;28;20026;-87
2020/12/08 12:24:15;;;;;;;31.63;22.08;;;6.60;99.90;;;;;;5064061;28;20069;-87
2020/12/08 12:26:40;;;;;;;32.47;23.48;;;6.60;99.90;;;;;;5066748;28;20028;-87
2020/12/08 12:29:06;;;;;;;36.28;24.25;;;6.70;99.90;;;;;;5082594;28;20020;-87
2020/12/08 12:31:31;;;;;;;32.00;22.83;;;6.70;99.90;;;;;;5084503;28;20023;-88
2020/12/08 12:33:57;;;;;;;31.67;23.30;;;6.80;99.90;;;;;;5092721;28;20027;-87
2020/12/08 12:36:22;;;;;;;28.63;21.52;;;6.90;99.90;;;;;;5075924;28;20073;-87
2020/12/08 12:38:48;;;;;;;28.85;20.27;;;7.10;99.90;;;;;;5076456;28;20024;-88
2020/12/08 12:41:22;;;;;;;30.83;22.58;;;7.30;99.90;;;;;;5094771;28;20532;-88